Walker Lake, Nevada
Current Conditions -  °F | °C
As of 3:52 AM on Tuesday 27 Jan 2015 (Local Time) from KBAN Reporting Station
Overcast Overcast  
Wind Chill: 33°   Ceiling: 7000
Heat Index: 37°   Visibility: NA
Dew Point: 30°   Wind: 5mph
Humidity: 76%   Direction: 260°W
Pressure: 30.11"   Gusts: NA
Location:  38.6331°N, 118.656°W
Report Text: KBAN 271152Z AUTO 26004KT SCT050 OVC070 03/M01 A3011 RMK AO2 SLP157 T00281011 10067 20022 50003 $
Loading
Personal Weather Stations






























Interactive Weather Map New forecast layout! Learn more

10-Day Weather Forecast

Advertisements
Track Severe Weather on mobile